Current | Forecast
Updated: 9:34 AM JST on May 28, 2017
Observed at Wakkanai Airport, Japan
Temperature 50°F
Humidity 100%
Dew Point 50°F
Wind NNE at 7 mph
Pressure 29.71 in (Steady)
Conditions Mostly Cloudy
Visibility 3.7 miles
UV 4 out of 16
Clouds (FEW) : 300 ft
Scattered Clouds (SCT) : 400 ft
Mostly Cloudy (BKN) : 500 ft
Yesterday's Maximum 57°F
Yesterday's Minimum 46°F approx.
Yesterday's Heating Degree Days 13 approx.
Sunrise3:53 AM JST
Sunset7:07 PM JST
Moon Rise6:16 AM JST
Moon Set9:33 PM JST
Moon PhaseMoon Phase
Waxing Crescent
Raw METARSPECI RJCW 280034Z 03006KT 6000 FEW003 SCT004 BKN005 10/10 Q1006 RMK 1ST003 4ST004 7ST005 A2972


Monday
. High: 71° F.
Tuesday
. High: 75° F.
Wednesday
. High: 57° F.
Thursday
. High: 60° F.
Friday
. High: 55° F.
Saturday
. High: 62° F.
Sunday
. High: 53° F.
Monday
. High: 53° F.

Units: English | Metric

Find the Weather for any City, State or Zipcode, or Country:

U.S. State List | Severe Weather | Tropical Storms | Ski Conditions
United States | Canada | Central America | South America | Asia | Europe | Australia | Africa | Islands

Weather Underground

© Copyright 2017
The Weather Company, LLC